Time;durP1;ratioP1;P1;durP2;ratioP2;P2;SDS_P1;SDS_P2;PMS_P1;PMS_P2;Temp;Humidity;BMP_temperature;BMP_pressure;BME280_temperature;BME280_humidity;BME280_pressure;Samples;Min_cycle;Max_cycle;Signal;HPM_P1;HPM_P2
2022/02/26 00:04:17;;;;;;;72.20;31.13;;;;;;;-2.89;81.59;99761.23;4086766;85;21055;-90
2022/02/26 00:10:18;;;;;;;67.70;30.53;;;;;;;-2.96;81.71;99762.84;4101071;85;21128;-89
2022/02/26 00:16:20;;;;;;;74.87;31.93;;;;;;;-3.03;81.29;99769.54;4103436;85;21690;-88
2022/02/26 00:22:25;;;;;;;76.05;32.60;;;;;;;-3.17;81.41;99765.26;4150678;84;21126;-88
2022/02/26 00:28:27;;;;;;;73.23;33.77;;;;;;;-3.28;81.26;99771.67;4154522;83;21353;-88
2022/02/26 00:34:29;;;;;;;81.17;33.97;;;;;;;-3.39;81.72;99774.06;4143030;84;21083;-90
2022/02/26 00:40:31;;;;;;;75.53;33.47;;;;;;;-3.30;82.05;99775.14;4154243;84;21094;-87
2022/02/26 00:46:34;;;;;;;80.20;35.17;;;;;;;-3.17;81.99;99777.31;4151823;83;21132;-87
2022/02/26 00:52:35;;;;;;;77.77;36.93;;;;;;;-3.31;81.59;99779.72;4145712;83;21627;-88
2022/02/26 00:58:37;;;;;;;82.43;35.73;;;;;;;-3.45;81.57;99785.31;4088116;86;21109;-87
2022/02/26 01:04:40;;;;;;;85.80;36.70;;;;;;;-3.67;81.28;99785.24;4174214;83;21066;-90
2022/02/26 01:10:42;;;;;;;89.30;36.53;;;;;;;-3.74;82.03;99788.69;4156632;83;21063;-91
2022/02/26 01:16:43;;;;;;;94.93;38.93;;;;;;;-3.52;82.90;99788.77;4083782;85;21018;-88
2022/02/26 01:22:45;;;;;;;95.60;39.43;;;;;;;-3.64;81.49;99799.44;4175648;83;21066;-89
2022/02/26 01:28:47;;;;;;;111.63;46.77;;;;;;;-3.74;81.45;99790.02;4176463;83;21664;-89
2022/02/26 01:34:49;;;;;;;100.67;45.33;;;;;;;-3.74;81.98;99790.02;4173924;83;21058;-87
2022/02/26 01:40:50;;;;;;;97.73;43.77;;;;;;;-3.73;82.46;99789.76;4098268;86;21101;-88
2022/02/26 01:46:51;;;;;;;106.13;42.60;;;;;;;-3.80;82.04;99795.91;4031695;86;21054;-90
2022/02/26 01:52:53;;;;;;;103.40;47.17;;;;;;;-3.96;82.19;99798.80;4181239;83;21056;-88
2022/02/26 01:58:55;;;;;;;114.30;46.33;;;;;;;-3.97;82.54;99804.67;4182294;83;21192;-90
2022/02/26 02:04:56;;;;;;;113.67;43.40;;;;;;;-4.05;82.14;99802.48;4182188;83;21103;-91
2022/02/26 02:10:58;;;;;;;110.70;43.80;;;;;;;-4.19;82.23;99806.70;4192092;83;21341;-89
2022/02/26 02:17:02;;;;;;;102.93;43.13;;;;;;;-4.26;82.49;99808.78;4186028;84;21047;-89
2022/02/26 02:23:04;;;;;;;112.17;42.77;;;;;;;-4.27;82.71;99805.84;4179427;83;21039;-91
2022/02/26 02:29:06;;;;;;;124.47;46.10;;;;;;;-4.26;82.62;99805.33;4190221;84;21717;-89
2022/02/26 02:35:08;;;;;;;131.77;48.93;;;;;;;-4.28;82.48;99806.92;4186449;83;21058;-90
2022/02/26 02:41:10;;;;;;;119.57;47.17;;;;;;;-4.46;82.08;99815.90;4175309;83;21011;-89
2022/02/26 02:47:11;;;;;;;133.73;52.20;;;;;;;-4.53;82.55;99816.12;4175229;84;21059;-90
2022/02/26 02:53:16;;;;;;;129.10;51.57;;;;;;;-4.52;82.69;99820.91;4180222;83;21047;-91
2022/02/26 02:59:16;;;;;;;121.40;46.57;;;;;;;-4.56;82.93;99826.50;4167479;82;39122;-90
2022/02/26 03:05:20;;;;;;;113.17;45.53;;;;;;;-4.56;82.39;99825.98;4202059;83;21551;-90
2022/02/26 03:11:24;;;;;;;126.62;49.42;;;;;;;-4.55;83.35;99838.27;4200448;83;21685;-90
2022/02/26 03:17:25;;;;;;;125.07;49.10;;;;;;;-4.56;83.03;99837.19;4209514;83;20993;-90
2022/02/26 03:23:28;;;;;;;115.77;48.20;;;;;;;-4.54;83.29;99843.88;4209118;83;21589;-91
2022/02/26 03:29:29;;;;;;;110.40;46.27;;;;;;;-4.47;83.30;99850.34;4210225;83;21075;-90
2022/02/26 03:35:31;;;;;;;120.37;46.50;;;;;;;-4.51;83.08;99854.61;4192942;83;21016;-91
2022/02/26 03:41:33;;;;;;;111.03;44.10;;;;;;;-4.62;82.83;99862.27;4197131;83;21047;-91
2022/02/26 03:47:34;;;;;;;101.90;39.83;;;;;;;-4.82;82.35;99866.11;4295455;80;34336;-90
2022/02/26 03:53:37;;;;;;;104.13;42.93;;;;;;;-4.86;83.18;99874.63;4349952;80;21082;-91
2022/02/26 03:59:38;;;;;;;96.40;39.33;;;;;;;-4.67;83.65;99875.06;4371001;80;21069;-91
2022/02/26 04:05:39;;;;;;;97.57;38.87;;;;;;;-4.57;82.72;99881.02;4369270;80;21540;-90
2022/02/26 04:11:42;;;;;;;100.97;38.43;;;;;;;-4.55;84.02;99890.38;4337223;80;21052;-90
2022/02/26 04:17:43;;;;;;;96.07;40.20;;;;;;;-4.55;83.39;99898.39;4356134;80;21008;-91
2022/02/26 04:23:44;;;;;;;97.07;40.87;;;;;;;-4.54;83.14;99904.00;4387379;80;21020;-92
2022/02/26 04:29:47;;;;;;;98.27;40.43;;;;;;;-4.69;82.96;99914.57;4354737;80;20994;-89
2022/02/26 04:35:48;;;;;;;92.30;40.73;;;;;;;-4.84;83.00;99922.45;4363245;80;21048;-91
2022/02/26 04:41:50;;;;;;;100.47;39.57;;;;;;;-4.92;83.17;99922.36;4367557;80;21000;-90
2022/02/26 04:47:52;;;;;;;90.47;38.33;;;;;;;-4.96;83.21;99926.60;4363315;80;21040;-91
2022/02/26 04:53:54;;;;;;;87.43;34.77;;;;;;;-5.04;83.02;99942.25;4369910;80;21334;-90
2022/02/26 04:59:55;;;;;;;94.73;33.03;;;;;;;-5.17;83.20;99943.99;4360287;80;21045;-92
2022/02/26 05:05:57;;;;;;;89.70;37.50;;;;;;;-5.05;83.17;99957.48;4339710;80;22128;-91
2022/02/26 05:12:00;;;;;;;92.63;36.90;;;;;;;-5.11;83.51;99963.02;4350301;80;21016;-91
2022/02/26 05:18:03;;;;;;;92.13;38.43;;;;;;;-5.12;82.97;99976.09;4353741;80;21541;-92
2022/02/26 05:24:06;;;;;;;90.53;36.60;;;;;;;-5.19;83.35;99986.95;4352613;80;21036;-90
2022/02/26 05:30:12;;;;;;;88.97;39.07;;;;;;;-5.27;83.35;99987.91;4343139;80;21128;-89
2022/02/26 05:36:13;;;;;;;102.90;39.63;;;;;;;-5.35;83.36;99984.33;4330461;80;21037;-94
2022/02/26 05:42:16;;;;;;;81.30;32.67;;;;;;;-5.36;83.65;100000.07;4328210;80;21036;-90
2022/02/26 05:48:18;;;;;;;82.10;35.40;;;;;;;-5.18;84.57;100018.44;4339960;80;21013;-89
2022/02/26 05:54:19;;;;;;;83.50;35.90;;;;;;;-4.96;84.39;100039.27;4353087;80;21068;-89
2022/02/26 06:00:21;;;;;;;89.43;37.60;;;;;;;-4.76;84.65;100036.83;4333312;80;22120;-90
2022/02/26 06:06:25;;;;;;;77.40;35.77;;;;;;;-4.69;84.44;100038.80;4346757;80;22412;-90
2022/02/26 06:12:28;;;;;;;100.80;39.23;;;;;;;-4.67;84.10;100038.55;4336428;80;21508;-90
2022/02/26 06:18:32;;;;;;;107.73;40.40;;;;;;;-4.67;84.02;100043.38;4334943;80;21037;-91
2022/02/26 06:24:34;;;;;;;116.20;44.87;;;;;;;-4.75;83.63;100063.84;4339735;80;20989;-90
2022/02/26 06:30:35;;;;;;;114.20;46.17;;;;;;;-4.85;84.06;100063.72;4318339;80;21063;-91
2022/02/26 06:36:38;;;;;;;108.33;45.37;;;;;;;-4.64;84.09;100070.92;4330229;80;21643;-90
2022/02/26 06:42:41;;;;;;;93.80;41.20;;;;;;;-4.02;86.06;100073.94;4333257;80;22172;-89
2022/02/26 06:48:44;;;;;;;90.47;38.27;;;;;;;-3.14;86.61;100077.27;4336972;80;21060;-92
2022/02/26 06:54:46;;;;;;;83.13;36.07;;;;;;;-2.43;86.21;100089.91;4363418;80;20982;-92
2022/02/26 07:00:48;;;;;;;75.73;33.60;;;;;;;-2.06;85.58;100092.68;4328734;80;21064;-89
2022/02/26 07:06:52;;;;;;;69.13;30.97;;;;;;;-1.86;85.09;100100.75;4347974;80;21090;-89
2022/02/26 07:13:15;;;;;;;61.47;29.00;;;;;;;-1.57;85.02;100103.16;4348446;80;20974;-90
2022/02/26 07:19:18;;;;;;;65.50;31.53;;;;;;;-1.18;85.13;100121.41;4342563;80;21073;-89
2022/02/26 07:25:20;;;;;;;67.63;30.53;;;;;;;-0.88;85.07;100126.73;4348924;80;21001;-88
2022/02/26 07:31:24;;;;;;;60.77;31.37;;;;;;;-0.56;83.95;100119.90;4351081;80;21009;-91
2022/02/26 07:37:27;;;;;;;47.00;22.52;;;;;;;-0.31;84.08;100133.24;4356317;80;21038;-90
2022/02/26 07:43:29;;;;;;;51.10;25.30;;;;;;;0.17;85.49;100143.76;4346879;80;21064;-91
2022/02/26 07:49:32;;;;;;;82.82;39.70;;;;;;;0.91;84.81;100158.27;4350644;80;21642;-91
2022/02/26 07:55:37;;;;;;;79.82;38.73;;;;;;;1.74;85.89;100158.72;4345257;80;22442;-89
2022/02/26 08:01:39;;;;;;;67.00;28.90;;;;;;;2.77;85.29;100163.44;4352853;80;21052;-91
2022/02/26 08:07:45;;;;;;;38.17;18.10;;;;;;;3.42;83.76;100170.38;4341199;80;21022;-91
2022/02/26 08:13:48;;;;;;;36.08;19.62;;;;;;;3.98;81.78;100171.42;4356630;80;21506;-89
2022/02/26 08:19:55;;;;;;;40.48;20.43;;;;;;;4.01;80.73;100178.97;4350512;80;21055;-90
2022/02/26 08:26:00;;;;;;;50.55;24.27;;;;;;;3.81;80.11;100185.59;4352224;80;21076;-90
2022/02/26 08:32:02;;;;;;;49.45;23.77;;;;;;;3.67;78.80;100184.79;4329153;80;21460;-91
2022/02/26 08:38:09;;;;;;;40.73;21.70;;;;;;;4.47;79.30;100184.44;4342306;80;21527;-93
2022/02/26 08:44:11;;;;;;;;;;;;;;;5.42;78.20;100184.53;4343039;80;21093;-90
2022/02/26 08:50:16;;;;;;;30.43;16.00;;;;;;;6.32;75.18;100186.84;4346478;80;20195;-90
2022/02/26 08:56:18;;;;;;;42.35;19.45;;;;;;;6.47;75.89;100194.30;4338119;80;20994;-94
2022/02/26 09:02:21;;;;;;;42.03;19.37;;;;;;;6.14;74.94;100202.87;4346650;80;21103;-91
2022/02/26 09:08:23;;;;;;;45.35;23.00;;;;;;;6.18;75.24;100210.66;4317639;81;21021;-90
2022/02/26 09:14:25;;;;;;;43.98;23.18;;;;;;;7.30;74.35;100221.78;4330663;81;21024;-88
2022/02/26 09:20:27;;;;;;;47.78;25.00;;;;;;;7.61;73.57;100218.25;4321323;81;21028;-90
2022/02/26 09:26:29;;;;;;;49.20;27.10;;;;;;;7.53;73.24;100226.47;4313760;81;21056;-91
2022/02/26 09:32:33;;;;;;;46.28;26.48;;;;;;;7.33;72.38;100240.20;4337330;80;21074;-91
2022/02/26 09:38:37;;;;;;;47.35;26.17;;;;;;;6.97;72.14;100245.20;4323721;80;21653;-89
2022/02/26 09:44:38;;;;;;;44.00;24.52;;;;;;;6.69;72.20;100256.16;4327921;80;21122;-91
2022/02/26 09:50:40;;;;;;;42.25;22.30;;;;;;;6.49;72.31;100265.48;4305386;81;21043;-88
2022/02/26 09:56:42;;;;;;;33.70;20.15;;;;;;;6.46;72.54;100271.56;4316723;81;22004;-89
2022/02/26 10:02:49;;;;;;;36.05;20.15;;;;;;;6.27;71.99;100280.00;4362096;80;21036;-89
2022/02/26 10:08:55;;;;;;;29.70;17.85;;;;;;;6.03;71.84;100293.17;4351889;80;21018;-91
2022/02/26 10:15:01;;;;;;;27.40;15.32;;;;;;;5.72;71.87;100292.35;4312672;80;21009;-90
2022/02/26 10:21:04;;;;;;;31.27;15.88;;;;;;;5.38;72.49;100290.79;4333513;80;21144;-89
2022/02/26 10:27:11;;;;;;;24.55;13.38;;;;;;;5.34;72.71;100296.03;4342269;80;21657;-91
2022/02/26 10:33:27;;;;;;;26.85;14.35;;;;;;;5.28;72.93;100292.41;4332655;80;21083;-89
2022/02/26 10:39:35;;;;;;;19.52;11.40;;;;;;;5.34;72.89;100290.59;4313243;80;21057;-91
2022/02/26 10:45:39;;;;;;;25.20;14.15;;;;;;;5.51;73.14;100296.14;4348505;80;21610;-92
2022/02/26 10:51:45;;;;;;;26.70;15.45;;;;;;;5.67;72.89;100300.66;4340247;80;21504;-88
2022/02/26 10:57:46;;;;;;;36.28;20.12;;;;;;;6.00;72.68;100299.23;4365205;80;21060;-88
2022/02/26 11:03:53;;;;;;;37.50;19.82;;;;;;;6.28;72.61;100304.16;4392321;80;21008;-91
2022/02/26 11:09:57;;;;;;;35.52;18.25;;;;;;;6.38;71.87;100307.15;4372567;80;21076;-90
2022/02/26 11:16:04;;;;;;;32.38;17.32;;;;;;;6.25;72.41;100307.50;4392101;80;21033;-90
2022/02/26 11:22:10;;;;;;;31.20;17.50;;;;;;;6.27;72.26;100314.80;4366071;80;21016;-91
2022/02/26 11:28:19;;;;;;;33.25;19.50;;;;;;;6.33;72.39;100308.09;4382932;80;21033;-90
2022/02/26 11:34:38;;;;;;;35.17;21.62;;;;;;;6.45;72.19;100310.77;4378892;80;21083;-91
2022/02/26 11:41:41;;;;;;;49.77;23.90;;;;;;;6.51;72.15;100310.31;4383047;80;20998;-90
2022/02/26 11:48:05;;;;;;;34.25;17.30;;;;;;;6.56;71.64;100308.00;4368652;80;21117;-90
2022/02/26 11:54:38;;;;;;;29.80;15.35;;;;;;;6.56;71.79;100312.89;4387844;80;21028;-91
2022/02/26 12:07:42;;;;;;;31.10;15.20;;;;;;;6.13;70.27;100313.30;4332560;80;21112;-90
2022/02/26 12:13:56;;;;;;;32.70;17.35;;;;;;;6.41;70.52;100314.67;4354928;80;21006;-88
2022/02/26 12:19:58;;;;;;;35.28;18.25;;;;;;;6.43;70.33;100314.36;4355989;80;21575;-91
2022/02/26 12:26:04;;;;;;;28.52;15.98;;;;;;;6.48;70.21;100314.22;4338757;80;21049;-89
2022/02/26 12:32:14;;;;;;;35.55;19.50;;;;;;;6.61;70.23;100319.52;4337561;80;21092;-91
2022/02/26 12:38:24;;;;;;;34.23;17.65;;;;;;;6.56;69.83;100308.81;4334025;80;21045;-89
2022/02/26 12:44:26;;;;;;;38.23;18.80;;;;;;;6.61;70.05;100316.80;4311437;80;21019;-90
2022/02/26 12:50:30;;;;;;;26.95;15.10;;;;;;;6.45;69.45;100306.14;4344900;80;21524;-89
2022/02/26 12:56:35;;;;;;;24.60;13.15;;;;;;;6.49;69.70;100304.38;4339236;80;21068;-89
2022/02/26 13:02:55;;;;;;;21.15;11.48;;;;;;;6.55;69.55;100305.02;4360149;80;21063;-91
2022/02/26 13:09:00;;;;;;;30.05;15.55;;;;;;;6.40;69.34;100298.91;4379345;80;21056;-89
2022/02/26 13:15:13;;;;;;;34.05;18.50;;;;;;;6.17;69.34;100303.41;4390588;80;21064;-89
2022/02/26 13:21:18;;;;;;;38.42;21.05;;;;;;;6.17;69.86;100299.33;4400166;80;21072;-89
2022/02/26 13:27:23;;;;;;;34.18;16.85;;;;;;;6.49;69.33;100296.22;4380659;80;21052;-90
2022/02/26 13:33:36;;;;;;;32.53;17.55;;;;;;;6.39;68.70;100301.39;4375691;80;21021;-90
2022/02/26 13:39:46;;;;;;;29.12;16.48;;;;;;;6.04;69.42;100301.59;4366501;80;21029;-89
2022/02/26 13:45:47;;;;;;;33.70;18.95;;;;;;;6.27;69.41;100301.20;4371666;80;21025;-90
2022/02/26 13:51:52;;;;;;;29.75;16.67;;;;;;;6.43;69.55;100304.29;4385206;80;20994;-90
2022/02/26 13:57:55;;;;;;;39.60;20.00;;;;;;;6.32;69.14;100302.97;4389426;80;20995;-89
2022/02/26 14:03:58;;;;;;;40.90;22.22;;;;;;;6.15;69.36;100311.85;4357166;80;21055;-89
2022/02/26 14:10:00;;;;;;;37.60;21.05;;;;;;;5.86;69.65;100315.65;4391260;80;21691;-88
2022/02/26 14:16:07;;;;;;;40.27;21.47;;;;;;;5.42;70.14;100306.73;4373908;80;21016;-91
2022/02/26 14:22:13;;;;;;;41.58;22.02;;;;;;;5.36;71.12;100309.30;4345260;80;21028;-91
2022/02/26 14:28:21;;;;;;;49.03;24.18;;;;;;;5.31;70.99;100310.80;4361235;80;21045;-90
2022/02/26 14:34:23;;;;;;;40.17;21.70;;;;;;;5.36;71.68;100307.94;4330322;80;21032;-90
2022/02/26 14:40:24;;;;;;;41.48;20.82;;;;;;;5.30;71.44;100305.10;4364996;80;21572;-89
2022/02/26 14:46:32;;;;;;;41.08;21.57;;;;;;;5.21;71.63;100321.34;4366732;80;21743;-90
2022/02/26 14:52:37;;;;;;;33.38;18.23;;;;;;;5.08;71.60;100328.16;4365510;80;21599;-90
2022/02/26 14:58:39;;;;;;;33.88;18.57;;;;;;;5.07;71.93;100329.28;4376530;80;21948;-91
2022/02/26 15:04:45;;;;;;;36.38;19.42;;;;;;;5.02;72.06;100332.91;4358594;80;21029;-90
2022/02/26 15:10:47;;;;;;;36.60;19.40;;;;;;;4.99;71.84;100334.08;4353266;80;21029;-89
2022/02/26 15:16:52;;;;;;;36.60;18.70;;;;;;;4.91;72.04;100336.96;4352909;80;21103;-92
2022/02/26 15:22:55;;;;;;;41.25;21.42;;;;;;;4.76;72.21;100348.16;4337385;80;22396;-91
2022/02/26 15:29:03;;;;;;;35.40;18.32;;;;;;;4.69;72.21;100350.46;4341940;80;21274;-89
2022/02/26 15:35:07;;;;;;;45.88;20.97;;;;;;;4.53;72.08;100357.30;4348745;80;21020;-91
2022/02/26 15:41:09;;;;;;;43.13;21.20;;;;;;;4.42;72.34;100368.09;4345699;80;21578;-90
2022/02/26 15:47:11;;;;;;;38.25;20.97;;;;;;;4.32;72.47;100373.16;4345018;80;21622;-90
2022/02/26 15:53:13;;;;;;;48.63;24.12;;;;;;;4.24;72.45;100390.69;4342068;80;21092;-89
2022/02/26 15:59:17;;;;;;;52.05;23.98;;;;;;;4.07;72.33;100399.37;4329310;80;21566;-90
2022/02/26 16:05:19;;;;;;;46.92;24.50;;;;;;;3.96;72.74;100403.94;4328089;80;21057;-90
2022/02/26 16:11:20;;;;;;;63.83;29.65;;;;;;;3.88;72.62;100414.09;4314521;80;21865;-91
2022/02/26 16:17:22;;;;;;;62.67;30.08;;;;;;;3.77;73.10;100418.89;4338329;80;21079;-87
2022/02/26 16:23:27;;;;;;;75.45;39.13;;;;;;;3.63;73.37;100428.05;4343229;80;21041;-89
2022/02/26 16:29:31;;;;;;;62.43;29.98;;;;;;;3.52;73.34;100446.36;4330742;80;21099;-89
2022/02/26 16:35:32;;;;;;;67.90;26.87;;;;;;;3.38;73.85;100450.08;4345358;80;21031;-90
2022/02/26 16:41:33;;;;;;;37.23;19.48;;;;;;;3.28;73.25;100457.80;4358470;80;21037;-90
2022/02/26 16:47:37;;;;;;;39.42;17.77;;;;;;;3.05;73.97;100466.20;4350430;80;21579;-89
2022/02/26 16:54:05;;;;;;;39.48;19.02;;;;;;;2.87;74.87;100476.45;4359435;80;21043;-90
2022/02/26 17:00:13;;;;;;;37.03;19.05;;;;;;;2.68;75.70;100479.64;4363314;80;21012;-91
2022/02/26 17:06:26;;;;;;;39.80;17.95;;;;;;;2.49;75.96;100494.97;4375092;80;21521;-90
2022/02/26 17:12:30;;;;;;;37.13;18.10;;;;;;;2.31;75.79;100485.42;4383488;80;21060;-90
2022/02/26 17:18:40;;;;;;;36.48;17.25;;;;;;;2.00;76.62;100501.11;4360252;80;21713;-90
2022/02/26 17:24:45;;;;;;;37.38;18.57;;;;;;;1.91;76.71;100493.33;4374582;80;21052;-90
2022/02/26 17:30:46;;;;;;;41.75;20.10;;;;;;;1.72;76.79;100498.34;4375798;80;21061;-90
2022/02/26 17:36:53;;;;;;;41.42;20.48;;;;;;;1.60;77.26;100505.42;4360629;80;21056;-90
2022/02/26 17:42:56;;;;;;;40.17;19.77;;;;;;;1.52;78.06;100513.58;4371218;80;20982;-93
2022/02/26 17:48:57;;;;;;;45.08;22.77;;;;;;;1.51;78.19;100520.07;4376852;80;21029;-91
2022/02/26 17:54:59;;;;;;;44.88;23.22;;;;;;;1.52;78.72;100527.60;4366461;80;21722;-91
2022/02/26 18:01:00;;;;;;;46.37;21.90;;;;;;;1.47;78.19;100533.84;4365203;80;21096;-90
2022/02/26 18:07:03;;;;;;;46.35;21.50;;;;;;;1.44;79.34;100527.65;4370396;80;21706;-90
2022/02/26 18:13:08;;;;;;;58.63;25.37;;;;;;;1.53;79.74;100536.77;4379907;80;21022;-91
2022/02/26 18:19:16;;;;;;;58.50;28.12;;;;;;;1.51;80.03;100544.36;4362558;80;21048;-91
2022/02/26 18:25:20;;;;;;;64.27;29.95;;;;;;;1.53;79.24;100549.48;4382654;80;21068;-91
2022/02/26 18:31:24;;;;;;;70.92;34.92;;;;;;;1.53;80.46;100556.22;4361710;80;21032;-90
2022/02/26 18:37:26;;;;;;;77.05;36.50;;;;;;;1.56;80.47;100559.72;4374304;80;20987;-90
2022/02/26 18:43:33;;;;;;;78.70;37.30;;;;;;;1.56;80.81;100561.06;4373821;80;21645;-91
2022/02/26 18:49:35;;;;;;;74.80;37.17;;;;;;;1.49;80.75;100562.71;4370636;80;21006;-90
2022/02/26 18:55:42;;;;;;;81.85;40.80;;;;;;;1.38;80.90;100575.98;4368609;80;22078;-90
2022/02/26 19:01:43;;;;;;;78.57;40.30;;;;;;;1.26;80.98;100580.08;4358975;80;21620;-88
2022/02/26 19:07:48;;;;;;;76.92;39.33;;;;;;;1.21;81.57;100578.75;4348009;80;21013;-91
2022/02/26 19:13:49;;;;;;;89.05;43.48;;;;;;;1.12;81.45;100585.80;4346174;80;21088;-92
2022/02/26 19:19:52;;;;;;;77.87;36.08;;;;;;;1.10;81.00;100591.47;4336293;80;21048;-89
2022/02/26 19:25:53;;;;;;;92.60;42.62;;;;;;;0.92;81.63;100602.85;4358218;80;21026;-90
2022/02/26 19:32:05;;;;;;;93.58;46.55;;;;;;;0.83;81.14;100611.77;4338133;80;22108;-89
2022/02/26 19:38:07;;;;;;;91.37;42.03;;;;;;;0.64;81.24;100610.17;4352567;80;21973;-92
2022/02/26 19:44:09;;;;;;;89.58;42.23;;;;;;;0.39;81.66;100618.79;4349662;80;21064;-90
2022/02/26 19:50:11;;;;;;;92.08;42.80;;;;;;;0.32;82.46;100627.13;4355001;80;21091;-89
2022/02/26 19:56:14;;;;;;;84.52;42.45;;;;;;;0.26;81.89;100628.21;4338173;80;21091;-89
2022/02/26 20:02:15;;;;;;;116.15;55.60;;;;;;;0.00;82.32;100604.47;4340428;80;21084;-89
2022/02/26 20:08:17;;;;;;;96.22;49.10;;;;;;;0.09;82.33;100637.08;4375901;80;21567;-90
2022/02/26 20:14:18;;;;;;;86.57;42.35;;;;;;;-0.02;82.17;100644.30;4390213;80;21052;-94
2022/02/26 20:20:20;;;;;;;114.88;54.70;;;;;;;-0.03;82.53;100641.34;4354070;80;21429;-90
2022/02/26 20:26:25;;;;;;;135.00;57.88;;;;;;;-0.04;83.37;100644.31;4386099;80;21041;-91
2022/02/26 20:32:28;;;;;;;133.77;59.73;;;;;;;-0.04;83.37;100644.31;4339730;80;21639;-91
2022/02/26 20:38:29;;;;;;;115.57;54.90;;;;;;;-0.08;83.61;100645.37;4348509;80;21059;-89
2022/02/26 20:44:42;;;;;;;122.70;54.77;;;;;;;-0.09;83.79;100640.25;4375739;80;21036;-90
2022/02/26 20:50:46;;;;;;;100.82;48.80;;;;;;;-0.29;84.08;100603.86;4371596;80;21859;-90
2022/02/26 20:56:55;;;;;;;95.17;46.00;;;;;;;-0.21;83.50;100640.51;4370140;80;21084;-90
2022/02/26 21:02:56;;;;;;;99.45;48.02;;;;;;;-0.28;84.96;100629.16;4367053;80;21863;-89
2022/02/26 21:08:59;;;;;;;116.12;54.38;;;;;;;-0.28;84.96;100629.16;4341045;80;21112;-89
2022/02/26 21:15:08;;;;;;;126.82;62.53;;;;;;;-0.15;84.25;100644.83;4339327;80;21135;-89
2022/02/26 21:21:15;;;;;;;115.65;57.25;;;;;;;-0.15;84.25;100644.83;4347869;80;21029;-90
2022/02/26 21:27:22;;;;;;;115.25;54.45;;;;;;;-0.23;84.70;100641.30;4325867;80;21034;-89
2022/02/26 21:33:35;;;;;;;120.85;57.48;;;;;;;-0.28;84.63;100641.28;4345585;80;21072;-90
2022/02/26 21:39:36;;;;;;;123.70;61.30;;;;;;;-0.38;84.46;100642.60;4357587;80;20965;-90
2022/02/26 21:45:45;;;;;;;136.10;64.45;;;;;;;-0.60;84.20;100644.66;4359402;80;21346;-89
2022/02/26 21:51:51;;;;;;;133.22;64.50;;;;;;;-0.68;84.97;100645.16;4335629;80;21826;-90
2022/02/26 22:04:31;;;;;;;130.85;61.18;;;;;;;-0.65;85.25;100641.94;4324261;80;21077;-89
2022/02/26 22:10:33;;;;;;;149.90;68.60;;;;;;;-0.69;84.89;100641.38;4353570;80;21619;-90
2022/02/26 22:16:39;;;;;;;135.55;63.05;;;;;;;-0.74;85.63;100641.34;4357225;80;21025;-90
2022/02/26 22:22:42;;;;;;;145.70;71.27;;;;;;;-0.73;85.22;100647.81;4363543;80;21349;-91
2022/02/26 22:28:54;;;;;;;140.80;68.93;;;;;;;-0.81;85.84;100643.45;4327140;80;21063;-90
2022/02/26 22:35:07;;;;;;;164.30;78.93;;;;;;;-0.95;85.32;100645.80;4361545;80;21021;-92
2022/02/26 22:41:12;;;;;;;144.00;69.90;;;;;;;-1.09;86.32;100635.23;4341153;80;21032;-92
2022/02/26 22:47:19;;;;;;;117.63;58.90;;;;;;;-1.20;85.83;100648.84;4342119;80;21119;-90
2022/02/26 22:53:21;;;;;;;157.00;70.03;;;;;;;-1.22;85.90;100649.66;4342645;80;21083;-90
2022/02/26 22:59:22;;;;;;;156.53;74.73;;;;;;;-1.38;85.78;100647.92;4335486;80;21036;-90
2022/02/26 23:05:26;;;;;;;193.57;88.80;;;;;;;-1.46;85.94;100648.39;4361071;80;21041;-91
2022/02/26 23:11:27;;;;;;;139.90;67.97;;;;;;;-1.50;85.84;100652.66;4372603;80;21583;-91
2022/02/26 23:17:29;;;;;;;132.27;66.60;;;;;;;-1.51;85.86;100651.84;4387432;80;21096;-89
2022/02/26 23:23:31;;;;;;;130.53;61.50;;;;;;;-1.51;86.52;100659.08;4398435;80;21000;-89
2022/02/26 23:29:33;;;;;;;138.23;61.57;;;;;;;-1.63;85.70;100661.95;4389981;80;21583;-90
2022/02/26 23:35:36;;;;;;;119.40;54.77;;;;;;;-1.74;86.28;100667.73;4375876;80;22065;-89
2022/02/26 23:41:38;;;;;;;132.17;60.33;;;;;;;-1.78;86.10;100668.50;4382640;80;21009;-90
2022/02/26 23:47:39;;;;;;;135.90;62.87;;;;;;;-1.85;86.34;100663.33;4380220;80;21012;-90
2022/02/26 23:53:41;;;;;;;133.73;63.97;;;;;;;-1.88;86.45;100657.13;4378579;80;21036;-88
2022/02/26 23:59:42;;;;;;;126.90;60.40;;;;;;;-1.89;86.73;100666.27;4377887;80;21059;-88
